Time;durP1;ratioP1;P1;durP2;ratioP2;P2;SDS_P1;SDS_P2;PMS_P1;PMS_P2;Temp;Humidity;BMP_temperature;BMP_pressure;BME280_temperature;BME280_humidity;BME280_pressure;Samples;Min_cycle;Max_cycle;Signal;HPM_P1;HPM_P2
2023/04/27 00:01:12;;;;;;;1999.90;999.90;;;9.80;99.90;;;;;;4973804;28;20410;-75
2023/04/27 00:03:39;;;;;;;1999.90;999.90;;;9.70;99.90;;;;;;4974888;28;20679;-75
2023/04/27 00:06:04;;;;;;;1999.90;999.90;;;9.50;99.90;;;;;;4975923;28;20464;-75
2023/04/27 00:08:30;;;;;;;1999.90;999.90;;;9.50;99.90;;;;;;4975885;28;20413;-75
2023/04/27 00:10:57;;;;;;;1999.90;999.90;;;9.40;99.90;;;;;;4975677;28;20540;-75
2023/04/27 00:13:23;;;;;;;1999.90;999.90;;;9.40;99.90;;;;;;4975670;28;20441;-75
2023/04/27 00:15:49;;;;;;;1999.90;999.90;;;9.40;99.90;;;;;;4975874;28;20493;-76
2023/04/27 00:18:14;;;;;;;1999.90;999.90;;;9.40;99.90;;;;;;4975705;28;20663;-75
2023/04/27 00:20:40;;;;;;;1999.90;999.90;;;9.40;99.90;;;;;;4990706;28;20690;-75
2023/04/27 00:23:06;;;;;;;1999.90;999.90;;;9.50;99.90;;;;;;4994789;28;20276;-75
2023/04/27 00:25:31;;;;;;;1999.90;999.90;;;9.40;99.90;;;;;;4995000;28;20613;-75
2023/04/27 00:27:57;;;;;;;1999.90;999.90;;;9.40;99.90;;;;;;4995057;28;20413;-75
2023/04/27 00:30:22;;;;;;;1999.90;999.90;;;9.40;99.90;;;;;;4994946;28;20227;-75
2023/04/27 00:32:48;;;;;;;1999.90;999.90;;;9.40;99.90;;;;;;4994535;28;20181;-75
2023/04/27 00:35:14;;;;;;;1999.90;999.90;;;9.40;99.90;;;;;;4994904;28;20170;-76
2023/04/27 00:37:39;;;;;;;1999.90;999.90;;;9.30;99.90;;;;;;4994898;28;20303;-76
2023/04/27 00:40:06;;;;;;;1999.90;999.90;;;9.40;99.90;;;;;;4994807;28;20169;-75
2023/04/27 00:42:32;;;;;;;1999.90;999.90;;;9.40;99.90;;;;;;4994466;28;20827;-76
2023/04/27 00:44:58;;;;;;;1999.90;999.90;;;9.30;99.90;;;;;;4994561;28;20413;-75
2023/04/27 00:47:24;;;;;;;1999.90;999.90;;;9.40;99.90;;;;;;4994595;28;20435;-75
2023/04/27 00:49:50;;;;;;;1999.90;999.90;;;9.30;99.90;;;;;;4994659;28;20169;-76
2023/04/27 00:52:17;;;;;;;1999.90;999.90;;;9.20;99.90;;;;;;4994275;28;20401;-76
2023/04/27 00:54:42;;;;;;;1999.90;999.90;;;9.20;99.90;;;;;;4995028;28;20459;-76
2023/04/27 00:57:08;;;;;;;1999.90;999.90;;;9.20;99.90;;;;;;4997719;28;20417;-76
2023/04/27 00:59:34;;;;;;;1999.90;999.90;;;9.10;99.90;;;;;;4997195;28;20180;-76
2023/04/27 01:02:00;;;;;;;1999.90;999.90;;;9.10;99.90;;;;;;4997187;28;20175;-76
2023/04/27 01:04:27;;;;;;;1999.90;999.90;;;9.50;99.90;;;;;;4997437;28;20191;-75
2023/04/27 01:06:53;;;;;;;1999.90;999.90;;;8.80;99.90;;;;;;4996711;28;20475;-75
2023/04/27 01:09:19;;;;;;;1999.90;999.90;;;8.90;99.90;;;;;;4997725;28;20419;-76
2023/04/27 01:11:45;;;;;;;1999.90;999.90;;;8.90;99.90;;;;;;4996725;28;20405;-75
2023/04/27 01:14:11;;;;;;;1999.90;999.90;;;8.80;99.90;;;;;;4997349;28;20201;-76
2023/04/27 01:16:37;;;;;;;1999.90;999.90;;;8.80;99.90;;;;;;4997432;28;20419;-76
2023/04/27 01:19:03;;;;;;;1999.90;999.90;;;8.80;99.90;;;;;;4997312;28;20172;-76
2023/04/27 01:21:30;;;;;;;1999.90;999.90;;;8.70;99.90;;;;;;4996903;28;20847;-76
2023/04/27 01:23:55;;;;;;;1999.90;999.90;;;8.70;99.90;;;;;;4997594;28;20440;-76
2023/04/27 01:26:21;;;;;;;1999.90;999.90;;;8.60;99.90;;;;;;4995290;28;20457;-76
2023/04/27 01:28:47;;;;;;;1999.90;999.90;;;8.50;99.90;;;;;;4997570;28;20212;-76
2023/04/27 01:31:13;;;;;;;1999.90;999.90;;;8.40;99.90;;;;;;4997447;28;20244;-76
2023/04/27 01:33:40;;;;;;;1999.90;999.90;;;8.40;99.90;;;;;;4997134;28;21247;-76
2023/04/27 01:36:07;;;;;;;1999.90;999.90;;;8.30;99.90;;;;;;4995862;28;20497;-76
2023/04/27 01:38:33;;;;;;;1999.90;999.90;;;8.30;99.90;;;;;;4997099;28;20412;-76
2023/04/27 01:41:02;;;;;;;1999.90;999.90;;;8.20;99.90;;;;;;4997334;28;20449;-76
2023/04/27 01:43:30;;;;;;;1999.90;999.90;;;8.10;99.90;;;;;;4997541;28;20469;-76
2023/04/27 01:45:56;;;;;;;1999.90;999.90;;;8.10;99.90;;;;;;4995851;28;20555;-75
2023/04/27 01:48:21;;;;;;;1999.90;999.90;;;8.20;99.90;;;;;;4997135;28;20474;-76
2023/04/27 01:50:47;;;;;;;1999.90;999.90;;;7.90;99.90;;;;;;4995722;28;20773;-76
2023/04/27 01:53:13;;;;;;;1999.90;999.90;;;8.00;99.90;;;;;;4993760;28;20517;-75
2023/04/27 01:55:38;;;;;;;1999.90;999.90;;;7.80;99.90;;;;;;4993331;28;20187;-75
2023/04/27 01:58:04;;;;;;;1999.90;999.90;;;7.80;99.90;;;;;;4993332;28;20250;-75
2023/04/27 02:00:29;;;;;;;1999.90;999.90;;;7.70;99.90;;;;;;4992031;28;20204;-76
2023/04/27 02:02:57;;;;;;;1999.90;999.90;;;7.70;99.90;;;;;;4991627;28;20300;-76
2023/04/27 02:05:23;;;;;;;1999.90;999.90;;;7.60;99.90;;;;;;4993218;28;20679;-76
2023/04/27 02:07:49;;;;;;;1999.90;999.90;;;7.70;99.90;;;;;;4993262;28;21095;-76
2023/04/27 02:10:15;;;;;;;1999.90;999.90;;;7.50;99.90;;;;;;4993147;28;20769;-75
2023/04/27 02:12:40;;;;;;;1999.90;999.90;;;7.50;99.90;;;;;;4992769;28;20816;-75
2023/04/27 02:15:07;;;;;;;1999.90;999.90;;;7.40;99.90;;;;;;4992924;28;20437;-76
2023/04/27 02:17:33;;;;;;;1999.90;999.90;;;7.30;99.90;;;;;;4993076;28;20609;-75
2023/04/27 02:19:59;;;;;;;1999.90;999.90;;;7.40;99.90;;;;;;4993111;28;20453;-75
2023/04/27 02:22:25;;;;;;;1999.90;999.90;;;7.30;99.90;;;;;;4992520;28;20434;-76
2023/04/27 02:24:50;;;;;;;1999.90;999.90;;;7.30;99.90;;;;;;4992211;28;20225;-76
2023/04/27 02:27:16;;;;;;;1999.90;999.90;;;7.30;99.90;;;;;;4992817;28;20173;-76
2023/04/27 02:29:42;;;;;;;1999.90;999.90;;;7.10;99.90;;;;;;4992766;28;20182;-75
2023/04/27 02:32:07;;;;;;;1999.90;999.90;;;7.10;99.90;;;;;;4992588;28;20178;-75
2023/04/27 02:34:33;;;;;;;1999.90;999.90;;;7.00;99.90;;;;;;4992728;28;20429;-76
2023/04/27 02:36:59;;;;;;;1999.90;999.90;;;7.00;99.90;;;;;;4992806;28;20177;-76
2023/04/27 02:39:24;;;;;;;1999.90;999.90;;;6.90;99.90;;;;;;4992753;28;20206;-76
2023/04/27 02:41:50;;;;;;;1999.90;999.90;;;6.90;99.90;;;;;;4992368;28;20176;-76
2023/04/27 02:44:15;;;;;;;1999.90;999.90;;;6.80;99.90;;;;;;4992611;28;20210;-74
2023/04/27 02:46:41;;;;;;;1999.90;999.90;;;6.90;99.90;;;;;;4992618;28;20345;-76
2023/04/27 02:49:07;;;;;;;1999.90;999.90;;;6.70;99.90;;;;;;4992630;28;20232;-75
2023/04/27 02:51:32;;;;;;;1999.90;999.90;;;6.70;99.90;;;;;;4992309;28;20171;-76
2023/04/27 02:53:58;;;;;;;1999.90;999.90;;;6.60;99.90;;;;;;4992535;28;20204;-75
2023/04/27 02:56:23;;;;;;;1999.90;999.90;;;6.60;99.90;;;;;;4992618;28;20212;-76
2023/04/27 02:58:49;;;;;;;1999.90;999.90;;;6.60;99.90;;;;;;4992503;28;20175;-76
2023/04/27 03:01:16;;;;;;;1999.90;999.90;;;6.50;99.90;;;;;;4992306;28;20182;-76
2023/04/27 03:03:45;;;;;;;1999.90;999.90;;;6.50;99.90;;;;;;4992487;28;20190;-76
2023/04/27 03:06:11;;;;;;;1999.90;999.90;;;6.40;99.90;;;;;;4992417;28;20503;-76
2023/04/27 03:08:36;;;;;;;1999.90;999.90;;;6.40;99.90;;;;;;4992378;28;20421;-75
2023/04/27 03:11:02;;;;;;;1999.90;999.90;;;6.40;99.90;;;;;;4992133;28;20174;-76
2023/04/27 03:13:28;;;;;;;1999.90;999.90;;;6.30;99.90;;;;;;4992269;28;20723;-74
2023/04/27 03:15:54;;;;;;;1999.90;999.90;;;6.30;99.90;;;;;;4992449;28;20413;-76
2023/04/27 03:18:20;;;;;;;1999.90;999.90;;;6.30;99.90;;;;;;4992446;28;20217;-76
2023/04/27 03:20:45;;;;;;;1999.90;999.90;;;6.30;99.90;;;;;;4992337;28;20261;-76
2023/04/27 03:23:11;;;;;;;1999.90;999.90;;;6.20;99.90;;;;;;4991948;28;20502;-76
2023/04/27 03:25:36;;;;;;;1999.90;999.90;;;6.20;99.90;;;;;;4992229;28;20280;-75
2023/04/27 03:28:02;;;;;;;1999.90;999.90;;;7.20;99.90;;;;;;4992283;28;20175;-76
2023/04/27 03:30:28;;;;;;;1999.90;999.90;;;6.20;99.90;;;;;;4992310;28;20664;-76
2023/04/27 03:32:53;;;;;;;1999.90;999.90;;;6.10;99.90;;;;;;4991893;28;20244;-75
2023/04/27 03:35:19;;;;;;;1999.90;999.90;;;6.20;99.90;;;;;;4994188;28;20546;-76
2023/04/27 03:37:45;;;;;;;1999.90;999.90;;;6.10;99.90;;;;;;4996617;28;20261;-76
2023/04/27 03:40:11;;;;;;;1999.90;999.90;;;6.00;99.90;;;;;;4997828;28;20787;-76
2023/04/27 03:42:37;;;;;;;1999.90;999.90;;;6.00;99.90;;;;;;4997623;28;20256;-76
2023/04/27 03:45:04;;;;;;;1999.90;999.90;;;6.00;99.90;;;;;;4998616;28;20432;-76
2023/04/27 03:47:30;;;;;;;1999.90;999.90;;;6.00;99.90;;;;;;4997304;28;20177;-76
2023/04/27 03:49:55;;;;;;;1999.90;999.90;;;5.90;99.90;;;;;;4998659;28;20408;-76
2023/04/27 03:52:21;;;;;;;1999.90;999.90;;;5.90;99.90;;;;;;4997988;28;20163;-76
2023/04/27 03:54:47;;;;;;;1999.90;999.90;;;5.80;99.90;;;;;;4998082;28;20174;-75
2023/04/27 03:57:12;;;;;;;1999.90;999.90;;;5.80;99.90;;;;;;4998266;28;20535;-76
2023/04/27 03:59:38;;;;;;;1999.90;999.90;;;5.80;99.90;;;;;;4998009;28;20177;-76
2023/04/27 04:02:04;;;;;;;1999.90;999.90;;;5.80;99.90;;;;;;4997735;28;20636;-76
2023/04/27 04:04:30;;;;;;;1999.90;999.90;;;5.80;99.90;;;;;;4997590;28;20193;-76
2023/04/27 04:06:55;;;;;;;1999.90;999.90;;;5.60;99.90;;;;;;4997744;28;20452;-76
2023/04/27 04:09:21;;;;;;;1999.90;999.90;;;5.70;99.90;;;;;;4997494;28;20424;-76
2023/04/27 04:11:47;;;;;;;1999.90;999.90;;;5.70;99.90;;;;;;4997539;28;20718;-76
2023/04/27 04:14:12;;;;;;;1999.90;999.90;;;5.70;99.90;;;;;;4997444;28;20209;-76
2023/04/27 04:16:38;;;;;;;1999.90;999.90;;;5.70;99.90;;;;;;4998024;28;20205;-76
2023/04/27 04:19:03;;;;;;;1999.90;999.90;;;5.70;99.90;;;;;;4996033;28;20177;-76
2023/04/27 04:21:30;;;;;;;1999.90;999.90;;;5.70;99.90;;;;;;4995183;28;20185;-76
2023/04/27 04:23:56;;;;;;;1999.90;999.90;;;5.60;99.90;;;;;;4995057;28;20194;-76
2023/04/27 04:26:22;;;;;;;1999.90;999.90;;;5.60;99.90;;;;;;4994943;28;20452;-76
2023/04/27 04:28:48;;;;;;;1999.90;999.90;;;5.70;99.90;;;;;;4995014;28;20640;-76
2023/04/27 04:31:16;;;;;;;1999.90;999.90;;;5.60;99.90;;;;;;4994744;28;20437;-76
2023/04/27 04:33:41;;;;;;;1999.90;999.90;;;5.60;99.90;;;;;;4994863;28;20429;-76
2023/04/27 04:36:07;;;;;;;1999.90;999.90;;;5.60;99.90;;;;;;4994843;28;20446;-76
2023/04/27 04:38:33;;;;;;;1999.90;999.90;;;5.60;99.90;;;;;;4994835;28;20178;-76
2023/04/27 04:40:59;;;;;;;1999.90;999.90;;;6.40;99.90;;;;;;4994460;28;20201;-75
2023/04/27 04:43:24;;;;;;;1999.90;999.90;;;5.70;99.90;;;;;;4994752;28;20198;-76
2023/04/27 04:45:50;;;;;;;1999.90;999.90;;;5.70;99.90;;;;;;4994259;28;20204;-76
2023/04/27 04:48:16;;;;;;;1999.90;999.90;;;5.70;99.90;;;;;;4994375;28;20178;-76
2023/04/27 04:50:42;;;;;;;1999.90;999.90;;;5.70;99.90;;;;;;4994611;28;20890;-76
2023/04/27 04:53:08;;;;;;;1999.90;999.90;;;5.70;99.90;;;;;;4994229;28;20432;-75
2023/04/27 04:55:33;;;;;;;1999.90;999.90;;;5.80;99.90;;;;;;4994580;28;20212;-76
2023/04/27 04:58:00;;;;;;;1999.90;999.90;;;5.80;99.90;;;;;;4994414;28;20182;-75
2023/04/27 05:00:26;;;;;;;1999.90;999.90;;;5.80;99.90;;;;;;4994436;28;20178;-76
2023/04/27 05:02:52;;;;;;;1999.90;999.90;;;5.80;99.90;;;;;;4994076;28;20431;-76
2023/04/27 05:05:17;;;;;;;1999.90;999.90;;;5.90;99.90;;;;;;4994305;28;20232;-76
2023/04/27 05:07:43;;;;;;;1999.90;999.90;;;5.90;99.90;;;;;;4994280;28;20413;-75
2023/04/27 05:10:09;;;;;;;1999.90;999.90;;;5.90;99.90;;;;;;4994293;28;20788;-75
2023/04/27 05:12:35;;;;;;;1999.90;999.90;;;5.90;99.90;;;;;;4994135;28;20409;-75
2023/04/27 05:15:00;;;;;;;1999.90;999.90;;;6.00;99.90;;;;;;4994098;28;20244;-76
2023/04/27 05:17:26;;;;;;;1999.90;999.90;;;6.00;99.90;;;;;;4995342;28;20217;-76
2023/04/27 05:19:51;;;;;;;1999.90;999.90;;;6.10;99.90;;;;;;4995824;28;20219;-76
2023/04/27 05:22:17;;;;;;;1999.90;999.90;;;6.10;99.90;;;;;;4996041;28;20174;-76
2023/04/27 05:24:43;;;;;;;1999.90;999.90;;;6.20;99.90;;;;;;4995778;28;20201;-76
2023/04/27 05:27:08;;;;;;;1999.90;999.90;;;6.20;99.90;;;;;;4993818;28;20232;-76
2023/04/27 05:29:34;;;;;;;1999.90;999.90;;;6.20;99.90;;;;;;4993892;28;20640;-75
2023/04/27 05:31:59;;;;;;;1999.90;999.90;;;6.20;99.90;;;;;;4993827;28;20253;-76
2023/04/27 05:34:25;;;;;;;1999.90;999.90;;;6.90;99.90;;;;;;4993728;28;20190;-75
2023/04/27 05:36:51;;;;;;;1999.90;999.90;;;6.40;99.90;;;;;;4993664;28;20256;-76
2023/04/27 05:39:16;;;;;;;1999.90;999.90;;;6.40;99.90;;;;;;4993763;28;20748;-76
2023/04/27 05:41:42;;;;;;;1999.90;999.90;;;6.50;99.90;;;;;;4993619;28;20220;-76
2023/04/27 05:44:07;;;;;;;1999.90;999.90;;;6.60;99.90;;;;;;4993956;28;20198;-76
2023/04/27 05:46:33;;;;;;;1999.90;999.90;;;6.60;99.90;;;;;;4993941;28;20224;-76
2023/04/27 05:48:59;;;;;;;1999.90;999.90;;;6.70;99.90;;;;;;4993620;28;20169;-75
2023/04/27 05:51:25;;;;;;;1999.90;999.90;;;6.80;99.90;;;;;;4993430;28;20683;-75
2023/04/27 05:53:54;;;;;;;1999.90;999.90;;;6.90;99.90;;;;;;4993530;28;20520;-76
2023/04/27 05:56:20;;;;;;;1999.90;999.90;;;6.90;99.90;;;;;;4993859;28;20919;-76
2023/04/27 05:58:46;;;;;;;1999.90;999.90;;;7.00;99.90;;;;;;4993684;28;20420;-76
2023/04/27 06:01:11;;;;;;;1999.90;999.90;;;7.10;99.90;;;;;;4993516;28;20416;-76
2023/04/27 06:03:37;;;;;;;1999.90;999.90;;;7.10;99.90;;;;;;4993525;28;20441;-76
2023/04/27 06:06:03;;;;;;;1999.90;999.90;;;7.10;99.90;;;;;;4993490;28;20209;-75
2023/04/27 06:08:29;;;;;;;1999.90;999.90;;;7.20;99.90;;;;;;4993762;28;20687;-76
2023/04/27 06:10:55;;;;;;;1999.90;999.90;;;7.20;99.90;;;;;;4993153;28;20509;-75
2023/04/27 06:13:21;;;;;;;1999.90;999.90;;;7.30;99.90;;;;;;4993504;28;20476;-77
2023/04/27 06:15:46;;;;;;;1999.90;999.90;;;7.40;99.90;;;;;;4993327;28;20176;-75
2023/04/27 06:18:12;;;;;;;1999.90;999.90;;;7.40;99.90;;;;;;4993071;28;20181;-76
2023/04/27 06:20:38;;;;;;;1999.90;999.90;;;7.50;99.90;;;;;;4993415;28;20183;-76
2023/04/27 06:23:04;;;;;;;1999.90;999.90;;;7.50;99.90;;;;;;4992985;28;20485;-76
2023/04/27 06:25:29;;;;;;;1999.90;999.90;;;7.60;99.90;;;;;;4993155;28;20215;-75
2023/04/27 06:27:57;;;;;;;1999.90;999.90;;;7.70;99.90;;;;;;4993106;28;20203;-76
2023/04/27 06:30:23;;;;;;;1999.90;999.90;;;7.80;99.90;;;;;;4993228;28;20401;-77
2023/04/27 06:32:50;;;;;;;1999.90;999.90;;;7.90;99.90;;;;;;4992866;28;20451;-76
2023/04/27 06:35:17;;;;;;;1999.90;999.90;;;8.00;99.90;;;;;;4993091;28;20436;-76
2023/04/27 06:37:43;;;;;;;1999.90;999.90;;;8.10;99.90;;;;;;4993074;28;20407;-76
2023/04/27 06:40:09;;;;;;;1999.90;999.90;;;8.40;99.90;;;;;;4993129;28;20415;-76
2023/04/27 06:42:35;;;;;;;1999.90;999.90;;;8.30;99.90;;;;;;4993028;28;20486;-77
2023/04/27 06:45:01;;;;;;;1999.90;999.90;;;8.40;99.90;;;;;;4993023;28;20443;-76
2023/04/27 06:47:26;;;;;;;1999.90;999.90;;;8.40;99.90;;;;;;4993062;28;20176;-76
2023/04/27 06:49:52;;;;;;;1999.90;999.90;;;8.50;99.90;;;;;;4993106;28;20749;-75
2023/04/27 06:52:17;;;;;;;1999.90;999.90;;;8.60;99.90;;;;;;4992454;28;20176;-76
2023/04/27 06:54:43;;;;;;;1999.90;999.90;;;9.10;99.90;;;;;;4992691;28;20195;-76
2023/04/27 06:57:09;;;;;;;1999.90;999.90;;;8.80;99.90;;;;;;4992906;28;20180;-76
2023/04/27 06:59:35;;;;;;;1999.90;999.90;;;8.80;99.90;;;;;;4992978;28;20646;-76
2023/04/27 07:02:00;;;;;;;1999.90;999.90;;;8.90;99.90;;;;;;4992593;28;20420;-76
2023/04/27 07:04:26;;;;;;;1999.90;999.90;;;9.30;99.90;;;;;;4992682;28;20832;-76
2023/04/27 07:06:52;;;;;;;1999.90;999.90;;;9.10;99.90;;;;;;4992662;28;20197;-75
2023/04/27 07:09:18;;;;;;;1999.90;999.90;;;9.10;99.90;;;;;;4992746;28;20173;-76
2023/04/27 07:11:43;;;;;;;1999.90;999.90;;;9.30;99.90;;;;;;4996427;28;20178;-77
2023/04/27 07:14:09;;;;;;;1999.90;999.90;;;9.30;99.90;;;;;;4996471;28;20280;-76
2023/04/27 07:16:35;;;;;;;1999.90;999.90;;;9.30;99.90;;;;;;4996642;28;20507;-75
2023/04/27 07:19:00;;;;;;;1999.90;999.90;;;9.40;99.90;;;;;;4996593;28;20555;-76
2023/04/27 07:21:27;;;;;;;1999.90;999.90;;;9.60;99.90;;;;;;4996198;28;20180;-76
2023/04/27 07:23:53;;;;;;;1999.90;999.90;;;9.70;99.90;;;;;;4996201;28;20726;-75
2023/04/27 07:26:19;;;;;;;1999.90;999.90;;;9.80;99.90;;;;;;4996157;28;20456;-76
2023/04/27 07:28:46;;;;;;;1999.90;999.90;;;9.70;99.90;;;;;;4996199;28;20447;-75
2023/04/27 07:31:11;;;;;;;1999.90;999.90;;;10.00;99.90;;;;;;4995954;28;20189;-76
2023/04/27 07:33:37;;;;;;;1999.90;999.90;;;9.90;99.90;;;;;;4996037;28;20570;-75
2023/04/27 07:36:04;;;;;;;1999.90;999.90;;;9.90;99.90;;;;;;4996040;28;20244;-76
2023/04/27 07:38:30;;;;;;;1999.90;999.90;;;10.00;99.90;;;;;;4995888;28;20617;-76
2023/04/27 07:40:57;;;;;;;1999.90;999.90;;;10.20;99.90;;;;;;4995725;28;20431;-73
2023/04/27 07:43:24;;;;;;;1999.90;999.90;;;10.30;99.90;;;;;;4989150;28;20437;-76
2023/04/27 07:45:50;;;;;;;1999.90;999.90;;;10.40;99.90;;;;;;4971255;28;20480;-76
2023/04/27 07:48:16;;;;;;;1999.90;999.90;;;10.60;99.90;;;;;;4957014;28;20414;-75
2023/04/27 07:50:41;;;;;;;1999.90;999.90;;;10.70;99.90;;;;;;4957574;29;20840;-76
2023/04/27 07:53:07;;;;;;;1999.90;999.90;;;10.80;99.90;;;;;;4956579;28;20751;-76
2023/04/27 07:55:33;;;;;;;1999.90;999.90;;;10.90;99.90;;;;;;4956999;28;20310;-77
2023/04/27 07:57:58;;;;;;;1999.90;999.90;;;11.00;99.90;;;;;;4956841;28;20179;-76
2023/04/27 08:00:25;;;;;;;1999.90;999.90;;;11.10;99.90;;;;;;4956743;28;20182;-75
2023/04/27 08:02:52;;;;;;;1999.90;999.90;;;11.20;99.90;;;;;;4956681;28;20202;-75
2023/04/27 08:05:18;;;;;;;1999.90;999.90;;;11.30;99.90;;;;;;4956543;28;20522;-76
2023/04/27 08:07:44;;;;;;;1999.90;999.90;;;11.40;99.90;;;;;;4956515;29;20501;-76
2023/04/27 08:10:10;;;;;;;1999.90;999.90;;;11.30;99.90;;;;;;4956181;28;20315;-76
2023/04/27 08:12:35;;;;;;;1999.90;999.90;;;11.50;99.90;;;;;;4956291;29;20853;-77
2023/04/27 08:15:01;;;;;;;1999.90;999.90;;;11.60;99.90;;;;;;4956356;28;20274;-76
2023/04/27 08:17:27;;;;;;;1999.90;999.90;;;11.60;99.90;;;;;;4956570;28;20186;-76
2023/04/27 08:19:52;;;;;;;1999.90;999.90;;;11.80;99.90;;;;;;4956446;29;20171;-75
2023/04/27 08:22:18;;;;;;;1999.90;999.90;;;11.80;99.90;;;;;;4954923;28;20178;-76
2023/04/27 08:24:44;;;;;;;1999.90;999.90;;;11.90;99.90;;;;;;4956310;29;20214;-76
2023/04/27 08:27:10;;;;;;;1999.90;999.90;;;11.90;99.90;;;;;;4956221;28;20200;-76
2023/04/27 08:29:35;;;;;;;1999.90;999.90;;;12.00;99.90;;;;;;4956230;28;20475;-76
2023/04/27 08:32:02;;;;;;;1999.90;999.90;;;12.10;99.90;;;;;;4955964;28;20246;-75
2023/04/27 08:34:28;;;;;;;1999.90;999.90;;;12.20;99.90;;;;;;4956223;28;20200;-76
2023/04/27 08:36:55;;;;;;;1999.90;999.90;;;12.30;99.90;;;;;;4956163;28;20419;-76
2023/04/27 08:39:20;;;;;;;1999.90;999.90;;;12.40;99.90;;;;;;4956121;28;20226;-76
2023/04/27 08:41:46;;;;;;;1999.90;999.90;;;12.50;99.90;;;;;;4955886;28;20925;-76
2023/04/27 08:44:12;;;;;;;1999.90;999.90;;;12.60;99.90;;;;;;4955871;28;20325;-76
2023/04/27 08:46:38;;;;;;;1999.90;999.90;;;12.60;99.90;;;;;;4955900;29;20697;-76
2023/04/27 08:49:05;;;;;;;1999.90;999.90;;;12.80;99.90;;;;;;4955922;28;20521;-76
2023/04/27 08:51:31;;;;;;;1999.90;999.90;;;12.80;99.90;;;;;;4955651;28;20409;-76
2023/04/27 08:53:57;;;;;;;1999.90;999.90;;;12.90;99.90;;;;;;4955751;28;20472;-75
2023/04/27 08:56:26;;;;;;;1999.90;999.90;;;12.90;96.50;;;;;;4955797;28;21040;-76
2023/04/27 08:58:53;;;;;;;1999.90;999.90;;;12.90;95.90;;;;;;4955712;29;20440;-76
2023/04/27 09:01:19;;;;;;;1999.90;999.90;;;12.90;94.90;;;;;;4955463;28;20435;-76
2023/04/27 09:03:45;;;;;;;1999.90;999.90;;;12.90;94.40;;;;;;4955642;28;20431;-76
2023/04/27 09:06:14;;;;;;;1999.90;999.90;;;12.90;95.60;;;;;;4955511;28;20503;-75
2023/04/27 09:08:49;;;;;;;1999.90;999.90;;;13.00;96.70;;;;;;4955602;29;20412;-76
2023/04/27 09:11:27;;;;;;;1999.90;999.90;;;13.00;93.40;;;;;;4955226;28;20409;-76
2023/04/27 09:13:53;;;;;;;1999.90;999.90;;;13.10;95.20;;;;;;4955408;28;20833;-76
2023/04/27 09:16:27;;;;;;;1999.90;999.90;;;13.20;95.40;;;;;;4955577;29;20443;-76
2023/04/27 09:18:52;;;;;;;1999.90;999.90;;;13.30;97.00;;;;;;4955450;28;20639;-76
2023/04/27 09:21:23;;;;;;;1999.90;999.90;;;13.50;97.80;;;;;;4954957;29;20421;-76
2023/04/27 09:23:49;;;;;;;1999.90;999.90;;;13.60;97.90;;;;;;4955193;28;20431;-76
2023/04/27 09:26:20;;;;;;;1999.90;999.90;;;13.70;93.50;;;;;;4955125;29;20487;-76
2023/04/27 09:28:49;;;;;;;1999.90;999.90;;;13.80;85.30;;;;;;4955251;28;20174;-74
2023/04/27 09:31:15;;;;;;;1999.90;999.90;;;13.80;81.90;;;;;;4954881;28;20466;-76
2023/04/27 09:33:43;;;;;;;1999.90;999.90;;;14.00;92.40;;;;;;4954764;28;20466;-76
2023/04/27 09:36:09;;;;;;;1999.90;999.90;;;14.10;93.90;;;;;;4954916;28;20413;-76
2023/04/27 09:38:34;;;;;;;1999.90;999.90;;;14.20;94.90;;;;;;4955004;28;20421;-76
2023/04/27 09:41:01;;;;;;;1999.90;999.90;;;14.40;92.40;;;;;;4954709;29;20921;-75
2023/04/27 09:43:28;;;;;;;1999.90;999.90;;;14.50;90.60;;;;;;4954831;28;20210;-75
2023/04/27 09:45:55;;;;;;;1999.90;999.90;;;14.70;79.10;;;;;;4954876;28;20552;-75
2023/04/27 09:48:23;;;;;;;1999.90;999.90;;;14.80;80.60;;;;;;4954810;28;20412;-76
2023/04/27 09:50:50;;;;;;;1999.90;999.90;;;15.00;76.40;;;;;;4954647;28;20454;-76
2023/04/27 09:53:23;;;;;;;1999.90;999.90;;;14.90;76.00;;;;;;4954556;28;20434;-75
2023/04/27 09:55:54;;;;;;;1999.90;999.90;;;15.10;74.40;;;;;;4954812;28;20419;-76
2023/04/27 09:58:26;;;;;;;1999.90;999.90;;;15.20;63.30;;;;;;4954473;28;20502;-75
2023/04/27 10:00:54;;;;;;;1999.90;999.90;;;15.30;59.90;;;;;;4954435;29;20835;-76
2023/04/27 10:03:29;;;;;;;1999.90;999.90;;;15.40;58.50;;;;;;4954403;29;20435;-75
2023/04/27 10:06:16;;;;;;;1999.90;999.90;;;15.60;60.20;;;;;;4954533;28;20551;-75
2023/04/27 10:08:42;;;;;;;1999.90;999.90;;;15.60;49.00;;;;;;4954632;29;20414;-76
2023/04/27 10:11:19;;;;;;;1999.90;999.90;;;15.60;57.10;;;;;;4954267;28;20413;-75
2023/04/27 10:13:52;;;;;;;1999.90;999.90;;;15.60;54.40;;;;;;4962225;28;20529;-78
2023/04/27 10:16:18;;;;;;;1999.90;999.90;;;15.70;55.70;;;;;;4971320;28;20443;-75
2023/04/27 10:18:52;;;;;;;1999.90;999.90;;;16.00;59.40;;;;;;4969881;28;20431;-75
2023/04/27 10:21:18;;;;;;;1999.90;999.90;;;16.30;55.40;;;;;;4971506;28;20831;-76
2023/04/27 10:23:49;;;;;;;1999.90;999.90;;;16.40;52.30;;;;;;4969781;28;20500;-76
2023/04/27 10:26:26;;;;;;;1999.90;999.90;;;16.50;48.00;;;;;;4968569;28;20205;-76
2023/04/27 10:28:56;;;;;;;1999.90;999.90;;;16.70;51.00;;;;;;4969449;28;20419;-74
2023/04/27 10:31:28;;;;;;;1999.90;999.90;;;16.70;46.10;;;;;;4969189;28;20429;-75
2023/04/27 10:34:08;;;;;;;1999.90;999.90;;;16.70;46.90;;;;;;4970299;28;20427;-75
2023/04/27 10:36:36;;;;;;;1999.90;999.90;;;16.60;46.80;;;;;;4970543;28;20435;-75
2023/04/27 10:39:04;;;;;;;1999.90;999.90;;;16.90;46.90;;;;;;4968512;28;20465;-75
2023/04/27 10:41:34;;;;;;;1999.90;999.90;;;17.10;46.70;;;;;;4969057;28;20434;-77
2023/04/27 10:44:19;;;;;;;1999.90;999.90;;;17.20;45.30;;;;;;4968836;28;20436;-75
2023/04/27 10:46:52;;;;;;;1999.90;999.90;;;17.30;45.40;;;;;;4969225;28;20452;-76
2023/04/27 10:49:18;;;;;;;1999.90;999.90;;;17.40;43.80;;;;;;4969082;28;20796;-75
2023/04/27 10:51:43;;;;;;;1999.90;999.90;;;17.40;40.90;;;;;;4968443;28;20469;-75
2023/04/27 10:54:10;;;;;;;1999.90;999.90;;;17.50;42.80;;;;;;4976206;28;20601;-75
2023/04/27 10:56:36;;;;;;;1999.90;999.90;;;17.80;40.60;;;;;;4979731;28;20269;-76
2023/04/27 10:59:03;;;;;;;1999.90;999.90;;;17.70;32.00;;;;;;4978322;28;20935;-76
2023/04/27 11:01:28;;;;;;;1999.90;999.90;;;17.60;34.40;;;;;;4974284;28;20653;-76
2023/04/27 11:03:58;;;;;;;1999.90;999.90;;;17.60;35.90;;;;;;4976241;28;20460;-76
2023/04/27 11:06:24;;;;;;;1999.90;999.90;;;17.40;28.10;;;;;;4975146;28;20227;-76
2023/04/27 11:08:50;;;;;;;1999.90;999.90;;;16.80;31.50;;;;;;4973806;28;20428;-75
2023/04/27 11:11:16;;;;;;;1999.90;999.90;;;16.50;30.50;;;;;;4972223;28;20177;-74
2023/04/27 11:13:43;;;;;;;1999.90;999.90;;;16.70;34.70;;;;;;4971393;28;20460;-74
2023/04/27 11:16:10;;;;;;;1999.90;999.90;;;17.00;30.90;;;;;;4964445;28;20421;-75
2023/04/27 11:18:36;;;;;;;1999.90;999.90;;;17.30;32.40;;;;;;4955976;28;20409;-75
2023/04/27 11:21:10;;;;;;;1999.90;999.90;;;17.70;33.10;;;;;;4950524;28;20512;-74
2023/04/27 11:23:37;;;;;;;1999.90;999.90;;;18.00;32.30;;;;;;4948723;28;20498;-77
2023/04/27 11:26:20;;;;;;;1999.90;999.90;;;18.40;36.10;;;;;;4958392;28;20557;-76
2023/04/27 11:29:04;;;;;;;1999.90;999.90;;;18.60;27.00;;;;;;4964174;28;20794;-76
2023/04/27 11:31:46;;;;;;;1999.90;999.90;;;18.50;24.60;;;;;;4969845;28;20412;-77
2023/04/27 11:34:16;;;;;;;1999.90;999.90;;;18.40;23.80;;;;;;4968645;28;20446;-76
2023/04/27 11:36:41;;;;;;;1999.90;999.90;;;18.40;25.10;;;;;;4969068;28;20449;-77
2023/04/27 11:39:08;;;;;;;1999.90;999.90;;;18.40;26.90;;;;;;4969580;28;20452;-77
2023/04/27 11:41:38;;;;;;;1999.90;999.90;;;18.30;27.60;;;;;;4968331;28;20197;-77
2023/04/27 11:44:06;;;;;;;1999.90;999.90;;;18.50;30.90;;;;;;4967290;28;20464;-77
2023/04/27 11:46:35;;;;;;;1999.90;999.90;;;18.80;28.00;;;;;;4968238;28;20531;-77
2023/04/27 11:49:02;;;;;;;1999.90;999.90;;;19.00;26.90;;;;;;4970731;28;20421;-77
2023/04/27 11:51:29;;;;;;;1999.90;999.90;;;19.30;29.60;;;;;;4969306;28;20427;-77
2023/04/27 11:53:55;;;;;;;1999.90;999.90;;;19.60;28.50;;;;;;4967764;28;20959;-76
2023/04/27 11:56:21;;;;;;;1999.90;999.90;;;20.00;26.10;;;;;;4968933;28;20416;-79
2023/04/27 11:58:47;;;;;;;1999.90;999.90;;;20.30;23.70;;;;;;4972736;28;20901;-78
2023/04/27 12:01:12;;;;;;;1999.90;999.90;;;20.70;23.30;;;;;;4972689;28;20447;-76
2023/04/27 12:03:38;;;;;;;1999.90;999.90;;;21.10;19.30;;;;;;4978231;28;21005;-75